sensor_id;sensor_type;location;lat;lon;timestamp;pressure;altitude;pressure_sealevel;temperature;humidity
69772;BME280;57046;45.988;18.664;2023-05-22T00:01:33;100504.09;;;20.08;78.68
69772;BME280;57046;45.988;18.664;2023-05-22T00:03:58;100487.22;;;20.06;78.20
69772;BME280;57046;45.988;18.664;2023-05-22T00:06:24;100497.81;;;20.11;77.96
69772;BME280;57046;45.988;18.664;2023-05-22T00:08:49;100508.41;;;20.09;78.23
69772;BME280;57046;45.988;18.664;2023-05-22T00:11:15;100508.03;;;20.10;78.20
69772;BME280;57046;45.988;18.664;2023-05-22T00:13:40;100508.41;;;20.09;78.39
69772;BME280;57046;45.988;18.664;2023-05-22T00:16:06;100502.50;;;20.03;78.99
69772;BME280;57046;45.988;18.664;2023-05-22T00:18:31;100494.53;;;19.84;80.19
69772;BME280;57046;45.988;18.664;2023-05-22T00:20:57;100498.09;;;19.88;79.23
69772;BME280;57046;45.988;18.664;2023-05-22T00:23:23;100486.59;;;19.72;80.24
69772;BME280;57046;45.988;18.664;2023-05-22T00:25:49;100487.78;;;19.74;80.45
69772;BME280;57046;45.988;18.664;2023-05-22T00:28:14;100488.50;;;19.64;80.83
69772;BME280;57046;45.988;18.664;2023-05-22T00:30:40;100488.44;;;19.57;81.45
69772;BME280;57046;45.988;18.664;2023-05-22T00:33:05;100484.16;;;19.60;81.19
69772;BME280;57046;45.988;18.664;2023-05-22T00:35:31;100485.28;;;19.52;81.62
69772;BME280;57046;45.988;18.664;2023-05-22T00:37:57;100484.50;;;19.51;81.77
69772;BME280;57046;45.988;18.664;2023-05-22T00:40:22;100477.38;;;19.47;82.04
69772;BME280;57046;45.988;18.664;2023-05-22T00:42:47;100487.03;;;19.33;83.15
69772;BME280;57046;45.988;18.664;2023-05-22T00:45:14;100484.91;;;19.16;83.49
69772;BME280;57046;45.988;18.664;2023-05-22T00:47:40;100487.53;;;19.06;84.89
69772;BME280;57046;45.988;18.664;2023-05-22T00:50:10;100452.63;;;18.96;84.44
69772;BME280;57046;45.988;18.664;2023-05-22T00:52:40;100467.28;;;19.14;84.10
69772;BME280;57046;45.988;18.664;2023-05-22T00:55:07;100487.31;;;19.21;84.47
69772;BME280;57046;45.988;18.664;2023-05-22T00:57:33;100493.16;;;19.20;84.50
69772;BME280;57046;45.988;18.664;2023-05-22T01:00:00;100477.16;;;19.22;84.20
69772;BME280;57046;45.988;18.664;2023-05-22T01:02:27;100449.91;;;18.99;83.93
69772;BME280;57046;45.988;18.664;2023-05-22T01:04:54;100481.41;;;19.19;84.41
69772;BME280;57046;45.988;18.664;2023-05-22T01:07:19;100492.34;;;19.16;84.38
69772;BME280;57046;45.988;18.664;2023-05-22T01:09:44;100490.41;;;19.16;84.14
69772;BME280;57046;45.988;18.664;2023-05-22T01:12:33;100488.94;;;19.29;83.42
69772;BME280;57046;45.988;18.664;2023-05-22T01:17:48;100492.09;;;19.28;83.24
69772;BME280;57046;45.988;18.664;2023-05-22T01:25:42;100499.50;;;18.87;85.59
69772;BME280;57046;45.988;18.664;2023-05-22T01:28:35;100509.94;;;18.78;85.67
69772;BME280;57046;45.988;18.664;2023-05-22T01:31:11;100507.53;;;18.73;86.01
69772;BME280;57046;45.988;18.664;2023-05-22T01:33:57;100509.63;;;18.83;85.36
69772;BME280;57046;45.988;18.664;2023-05-22T01:36:28;100512.75;;;18.85;85.11
69772;BME280;57046;45.988;18.664;2023-05-22T01:38:55;100507.66;;;18.84;84.67
69772;BME280;57046;45.988;18.664;2023-05-22T01:41:22;100512.72;;;18.81;84.79
69772;BME280;57046;45.988;18.664;2023-05-22T01:43:48;100518.94;;;18.78;84.62
69772;BME280;57046;45.988;18.664;2023-05-22T01:46:13;100500.13;;;18.73;84.36
69772;BME280;57046;45.988;18.664;2023-05-22T01:48:39;100514.59;;;18.74;84.25
69772;BME280;57046;45.988;18.664;2023-05-22T01:51:12;100510.69;;;18.75;83.95
69772;BME280;57046;45.988;18.664;2023-05-22T01:53:44;100466.44;;;18.40;83.93
69772;BME280;57046;45.988;18.664;2023-05-22T01:56:23;100511.78;;;18.67;83.60
69772;BME280;57046;45.988;18.664;2023-05-22T01:58:57;100501.72;;;18.78;83.17
69772;BME280;57046;45.988;18.664;2023-05-22T02:01:26;100504.44;;;18.74;83.44
69772;BME280;57046;45.988;18.664;2023-05-22T02:03:56;100493.34;;;18.64;83.75
69772;BME280;57046;45.988;18.664;2023-05-22T02:06:24;100463.28;;;18.38;83.86
69772;BME280;57046;45.988;18.664;2023-05-22T02:08:51;100488.94;;;18.56;83.90
69772;BME280;57046;45.988;18.664;2023-05-22T02:11:19;100487.19;;;18.44;84.14
69772;BME280;57046;45.988;18.664;2023-05-22T02:13:44;100490.69;;;18.41;84.25
69772;BME280;57046;45.988;18.664;2023-05-22T02:16:10;100487.09;;;18.34;84.83
69772;BME280;57046;45.988;18.664;2023-05-22T02:18:36;100482.03;;;18.36;84.72
69772;BME280;57046;45.988;18.664;2023-05-22T02:21:01;100485.91;;;18.35;84.76
69772;BME280;57046;45.988;18.664;2023-05-22T02:23:27;100485.84;;;18.31;85.49
69772;BME280;57046;45.988;18.664;2023-05-22T02:25:52;100489.97;;;18.18;86.01
69772;BME280;57046;45.988;18.664;2023-05-22T02:28:18;100497.00;;;18.15;86.45
69772;BME280;57046;45.988;18.664;2023-05-22T02:30:43;100500.47;;;18.12;87.26
69772;BME280;57046;45.988;18.664;2023-05-22T02:33:08;100490.28;;;18.09;86.92
69772;BME280;57046;45.988;18.664;2023-05-22T02:35:34;100500.03;;;18.10;87.02
69772;BME280;57046;45.988;18.664;2023-05-22T02:38:00;100499.97;;;18.07;86.95
69772;BME280;57046;45.988;18.664;2023-05-22T02:40:25;100499.94;;;18.03;87.50
69772;BME280;57046;45.988;18.664;2023-05-22T02:42:50;100497.69;;;18.09;87.16
69772;BME280;57046;45.988;18.664;2023-05-22T02:45:16;100496.78;;;18.01;88.14
69772;BME280;57046;45.988;18.664;2023-05-22T02:47:41;100507.16;;;17.89;88.33
69772;BME280;57046;45.988;18.664;2023-05-22T02:50:07;100499.63;;;17.82;88.69
69772;BME280;57046;45.988;18.664;2023-05-22T02:52:32;100500.44;;;17.86;88.78
69772;BME280;57046;45.988;18.664;2023-05-22T02:54:58;100498.44;;;17.83;88.82
69772;BME280;57046;45.988;18.664;2023-05-22T02:57:23;100491.88;;;17.88;88.45
69772;BME280;57046;45.988;18.664;2023-05-22T02:59:48;100495.38;;;17.85;88.48
69772;BME280;57046;45.988;18.664;2023-05-22T03:02:14;100491.16;;;17.91;88.04
69772;BME280;57046;45.988;18.664;2023-05-22T03:04:39;100497.72;;;17.86;88.07
69772;BME280;57046;45.988;18.664;2023-05-22T03:07:04;100494.97;;;17.86;87.96
69772;BME280;57046;45.988;18.664;2023-05-22T03:09:30;100498.78;;;17.78;88.68
69772;BME280;57046;45.988;18.664;2023-05-22T03:11:55;100486.25;;;17.77;88.54
69772;BME280;57046;45.988;18.664;2023-05-22T03:14:20;100482.78;;;17.80;88.09
69772;BME280;57046;45.988;18.664;2023-05-22T03:16:46;100490.13;;;17.76;88.07
69772;BME280;57046;45.988;18.664;2023-05-22T03:19:13;100472.06;;;17.68;88.10
69772;BME280;57046;45.988;18.664;2023-05-22T03:21:39;100485.69;;;17.64;88.43
69772;BME280;57046;45.988;18.664;2023-05-22T03:24:04;100488.41;;;17.64;88.76
69772;BME280;57046;45.988;18.664;2023-05-22T03:26:30;100489.88;;;17.58;88.39
69772;BME280;57046;45.988;18.664;2023-05-22T03:28:56;100484.41;;;17.58;88.43
69772;BME280;57046;45.988;18.664;2023-05-22T03:31:23;100491.03;;;17.57;88.41
69772;BME280;57046;45.988;18.664;2023-05-22T03:33:48;100480.44;;;17.56;88.97
69772;BME280;57046;45.988;18.664;2023-05-22T03:36:14;100481.88;;;17.50;88.38
69772;BME280;57046;45.988;18.664;2023-05-22T03:38:39;100491.28;;;17.52;88.14
69772;BME280;57046;45.988;18.664;2023-05-22T03:41:05;100496.75;;;17.52;88.07
69772;BME280;57046;45.988;18.664;2023-05-22T03:43:30;100490.09;;;17.50;88.32
69772;BME280;57046;45.988;18.664;2023-05-22T03:45:56;100494.69;;;17.46;88.18
69772;BME280;57046;45.988;18.664;2023-05-22T03:48:21;100492.34;;;17.44;88.79
69772;BME280;57046;45.988;18.664;2023-05-22T03:50:47;100499.00;;;17.47;88.67
69772;BME280;57046;45.988;18.664;2023-05-22T03:53:12;100491.19;;;17.45;88.97
69772;BME280;57046;45.988;18.664;2023-05-22T03:55:37;100495.56;;;17.50;88.59
69772;BME280;57046;45.988;18.664;2023-05-22T03:58:03;100490.50;;;17.29;90.28
69772;BME280;57046;45.988;18.664;2023-05-22T04:00:28;100501.94;;;17.35;90.20
69772;BME280;57046;45.988;18.664;2023-05-22T04:02:53;100497.56;;;17.30;90.30
69772;BME280;57046;45.988;18.664;2023-05-22T04:05:19;100495.38;;;17.39;90.11
69772;BME280;57046;45.988;18.664;2023-05-22T04:07:44;100495.38;;;17.39;90.20
69772;BME280;57046;45.988;18.664;2023-05-22T04:10:10;100497.75;;;17.41;89.76
69772;BME280;57046;45.988;18.664;2023-05-22T04:12:35;100496.91;;;17.37;90.18
69772;BME280;57046;45.988;18.664;2023-05-22T04:15:01;100491.19;;;17.45;90.10
69772;BME280;57046;45.988;18.664;2023-05-22T04:17:38;100498.78;;;17.55;90.20
69772;BME280;57046;45.988;18.664;2023-05-22T04:20:04;100504.06;;;17.67;89.53
69772;BME280;57046;45.988;18.664;2023-05-22T04:22:30;100506.28;;;17.58;90.16
69772;BME280;57046;45.988;18.664;2023-05-22T04:24:56;100503.53;;;17.58;89.74
69772;BME280;57046;45.988;18.664;2023-05-22T04:27:21;100507.09;;;17.62;89.85
69772;BME280;57046;45.988;18.664;2023-05-22T04:29:47;100504.59;;;17.54;90.46
69772;BME280;57046;45.988;18.664;2023-05-22T04:32:13;100501.53;;;17.55;90.76
69772;BME280;57046;45.988;18.664;2023-05-22T04:34:38;100502.31;;;17.56;92.04
69772;BME280;57046;45.988;18.664;2023-05-22T04:37:04;100507.44;;;17.57;91.10
69772;BME280;57046;45.988;18.664;2023-05-22T04:39:29;100510.16;;;17.57;91.68
69772;BME280;57046;45.988;18.664;2023-05-22T04:41:55;100507.09;;;17.62;90.80
69772;BME280;57046;45.988;18.664;2023-05-22T04:44:20;100510.50;;;17.56;92.59
69772;BME280;57046;45.988;18.664;2023-05-22T04:46:47;100508.28;;;17.61;91.79
69772;BME280;57046;45.988;18.664;2023-05-22T04:49:12;100504.31;;;17.59;91.46
69772;BME280;57046;45.988;18.664;2023-05-22T04:51:38;100515.47;;;17.73;91.73
69772;BME280;57046;45.988;18.664;2023-05-22T04:54:04;100507.78;;;17.78;92.50
69772;BME280;57046;45.988;18.664;2023-05-22T04:56:29;100508.13;;;17.77;91.22
69772;BME280;57046;45.988;18.664;2023-05-22T04:58:55;100500.03;;;17.84;91.08
69772;BME280;57046;45.988;18.664;2023-05-22T05:01:20;100506.94;;;18.01;90.78
69772;BME280;57046;45.988;18.664;2023-05-22T05:03:45;100502.59;;;17.96;91.23
69772;BME280;57046;45.988;18.664;2023-05-22T05:06:11;100497.88;;;17.97;91.11
69772;BME280;57046;45.988;18.664;2023-05-22T05:08:36;100505.88;;;18.09;90.73
69772;BME280;57046;45.988;18.664;2023-05-22T05:11:02;100502.91;;;18.21;89.99
69772;BME280;57046;45.988;18.664;2023-05-22T05:13:27;100512.31;;;18.20;89.90
69772;BME280;57046;45.988;18.664;2023-05-22T05:15:53;100510.91;;;18.33;88.85
69772;BME280;57046;45.988;18.664;2023-05-22T05:18:19;100517.69;;;18.43;88.48
69772;BME280;57046;45.988;18.664;2023-05-22T05:20:44;100516.31;;;18.56;87.15
69772;BME280;57046;45.988;18.664;2023-05-22T05:23:09;100517.97;;;18.60;87.51
69772;BME280;57046;45.988;18.664;2023-05-22T05:25:35;100518.31;;;18.59;86.64
69772;BME280;57046;45.988;18.664;2023-05-22T05:28:00;100527.78;;;18.65;85.77
69772;BME280;57046;45.988;18.664;2023-05-22T05:30:25;100511.28;;;18.61;85.69
69772;BME280;57046;45.988;18.664;2023-05-22T05:32:51;100536.81;;;18.69;86.07
69772;BME280;57046;45.988;18.664;2023-05-22T05:35:16;100541.19;;;18.73;87.19
69772;BME280;57046;45.988;18.664;2023-05-22T05:37:42;100541.91;;;18.67;86.59
69772;BME280;57046;45.988;18.664;2023-05-22T05:40:07;100546.31;;;18.78;86.70
69772;BME280;57046;45.988;18.664;2023-05-22T05:42:34;100546.75;;;18.80;86.86
69772;BME280;57046;45.988;18.664;2023-05-22T05:44:59;100545.16;;;18.79;86.67
69772;BME280;57046;45.988;18.664;2023-05-22T05:47:26;100550.34;;;18.85;86.58
69772;BME280;57046;45.988;18.664;2023-05-22T05:49:52;100552.81;;;18.97;87.56
69772;BME280;57046;45.988;18.664;2023-05-22T05:52:17;100543.00;;;18.96;86.90
69772;BME280;57046;45.988;18.664;2023-05-22T05:54:42;100546.63;;;19.03;86.79
69772;BME280;57046;45.988;18.664;2023-05-22T05:57:08;100543.59;;;19.12;86.96
69772;BME280;57046;45.988;18.664;2023-05-22T05:59:33;100543.28;;;19.20;86.48
69772;BME280;57046;45.988;18.664;2023-05-22T06:01:58;100545.63;;;19.18;85.70
69772;BME280;57046;45.988;18.664;2023-05-22T06:04:24;100541.34;;;19.21;86.18
69772;BME280;57046;45.988;18.664;2023-05-22T06:06:49;100540.94;;;19.22;86.23
69772;BME280;57046;45.988;18.664;2023-05-22T06:09:14;100550.00;;;19.26;86.33
69772;BME280;57046;45.988;18.664;2023-05-22T06:11:40;100547.72;;;19.32;85.31
69772;BME280;57046;45.988;18.664;2023-05-22T06:14:05;100543.09;;;19.40;85.77
69772;BME280;57046;45.988;18.664;2023-05-22T06:16:31;100546.34;;;19.49;85.31
69772;BME280;57046;45.988;18.664;2023-05-22T06:18:57;100549.59;;;19.61;84.91
69772;BME280;57046;45.988;18.664;2023-05-22T06:21:23;100557.50;;;19.70;85.35
69772;BME280;57046;45.988;18.664;2023-05-22T06:23:48;100547.06;;;19.86;83.37
69772;BME280;57046;45.988;18.664;2023-05-22T06:26:15;100537.25;;;19.85;82.75
69772;BME280;57046;45.988;18.664;2023-05-22T06:28:40;100547.53;;;19.99;81.57
69772;BME280;57046;45.988;18.664;2023-05-22T06:31:05;100546.47;;;20.10;83.08
69772;BME280;57046;45.988;18.664;2023-05-22T06:33:31;100547.31;;;20.25;83.57
69772;BME280;57046;45.988;18.664;2023-05-22T06:35:56;100552.56;;;20.41;79.96
69772;BME280;57046;45.988;18.664;2023-05-22T06:38:21;100548.31;;;20.54;79.09
69772;BME280;57046;45.988;18.664;2023-05-22T06:40:47;100556.22;;;20.66;77.71
69772;BME280;57046;45.988;18.664;2023-05-22T06:43:12;100559.00;;;20.76;79.36
69772;BME280;57046;45.988;18.664;2023-05-22T06:45:37;100566.50;;;20.87;77.35
69772;BME280;57046;45.988;18.664;2023-05-22T06:48:03;100562.22;;;21.00;78.72
69772;BME280;57046;45.988;18.664;2023-05-22T06:50:29;100562.31;;;21.10;75.64
69772;BME280;57046;45.988;18.664;2023-05-22T06:52:54;100572.56;;;21.27;74.90
69772;BME280;57046;45.988;18.664;2023-05-22T06:55:19;100569.03;;;21.38;75.56
69772;BME280;57046;45.988;18.664;2023-05-22T06:57:45;100570.25;;;21.47;77.52
69772;BME280;57046;45.988;18.664;2023-05-22T07:00:11;100572.63;;;21.52;75.26
69772;BME280;57046;45.988;18.664;2023-05-22T07:02:36;100568.31;;;21.62;76.61
69772;BME280;57046;45.988;18.664;2023-05-22T07:05:02;100560.44;;;21.71;73.67
69772;BME280;57046;45.988;18.664;2023-05-22T07:07:27;100567.53;;;21.79;71.87
69772;BME280;57046;45.988;18.664;2023-05-22T07:09:53;100563.63;;;21.91;73.19
69772;BME280;57046;45.988;18.664;2023-05-22T07:12:18;100566.75;;;22.03;70.44
69772;BME280;57046;45.988;18.664;2023-05-22T07:14:43;100567.56;;;22.14;71.45
69772;BME280;57046;45.988;18.664;2023-05-22T07:17:09;100556.91;;;22.20;71.51
69772;BME280;57046;45.988;18.664;2023-05-22T07:19:34;100569.09;;;22.29;71.20
69772;BME280;57046;45.988;18.664;2023-05-22T07:21:59;100564.72;;;22.43;69.19
69772;BME280;57046;45.988;18.664;2023-05-22T07:24:25;100575.31;;;22.58;68.19
69772;BME280;57046;45.988;18.664;2023-05-22T07:26:50;100563.50;;;22.61;66.75
69772;BME280;57046;45.988;18.664;2023-05-22T07:29:15;100576.50;;;22.71;66.35
69772;BME280;57046;45.988;18.664;2023-05-22T07:31:41;100559.50;;;22.80;65.53
69772;BME280;57046;45.988;18.664;2023-05-22T07:34:06;100562.22;;;22.94;61.41
69772;BME280;57046;45.988;18.664;2023-05-22T07:36:32;100570.06;;;23.03;62.23
69772;BME280;57046;45.988;18.664;2023-05-22T07:38:57;100555.88;;;23.01;63.59
69772;BME280;57046;45.988;18.664;2023-05-22T07:41:24;100525.56;;;22.97;62.23
69772;BME280;57046;45.988;18.664;2023-05-22T07:43:49;100558.13;;;23.27;60.26
69772;BME280;57046;45.988;18.664;2023-05-22T07:46:15;100563.19;;;23.36;62.60
69772;BME280;57046;45.988;18.664;2023-05-22T07:48:40;100556.84;;;23.39;60.74
69772;BME280;57046;45.988;18.664;2023-05-22T07:51:05;100566.56;;;23.64;59.47
69772;BME280;57046;45.988;18.664;2023-05-22T07:53:31;100549.28;;;23.53;60.16
69772;BME280;57046;45.988;18.664;2023-05-22T07:55:56;100563.69;;;23.75;61.68
69772;BME280;57046;45.988;18.664;2023-05-22T07:58:22;100558.09;;;23.86;61.82
69772;BME280;57046;45.988;18.664;2023-05-22T08:00:47;100562.34;;;23.97;60.87
69772;BME280;57046;45.988;18.664;2023-05-22T08:03:12;100561.06;;;24.05;55.59
69772;BME280;57046;45.988;18.664;2023-05-22T08:05:38;100560.97;;;24.19;56.65
69772;BME280;57046;45.988;18.664;2023-05-22T08:08:03;100545.22;;;24.16;56.74
69772;BME280;57046;45.988;18.664;2023-05-22T08:10:29;100553.00;;;24.28;57.44
69772;BME280;57046;45.988;18.664;2023-05-22T08:12:54;100561.19;;;24.39;56.79
69772;BME280;57046;45.988;18.664;2023-05-22T08:15:19;100556.34;;;24.47;55.77
69772;BME280;57046;45.988;18.664;2023-05-22T08:17:45;100561.75;;;24.57;54.63
69772;BME280;57046;45.988;18.664;2023-05-22T08:20:10;100564.84;;;24.66;57.31
69772;BME280;57046;45.988;18.664;2023-05-22T08:22:37;100556.91;;;24.68;56.27
69772;BME280;57046;45.988;18.664;2023-05-22T08:25:03;100543.81;;;24.72;59.12
69772;BME280;57046;45.988;18.664;2023-05-22T08:27:29;100550.06;;;24.80;55.96
69772;BME280;57046;45.988;18.664;2023-05-22T08:29:54;100546.06;;;24.85;56.36
69772;BME280;57046;45.988;18.664;2023-05-22T08:32:20;100554.19;;;24.99;54.95
69772;BME280;57046;45.988;18.664;2023-05-22T08:34:45;100550.97;;;25.04;53.85
69772;BME280;57046;45.988;18.664;2023-05-22T08:37:10;100552.38;;;25.15;52.74
69772;BME280;57046;45.988;18.664;2023-05-22T08:39:36;100552.75;;;25.17;54.93
69772;BME280;57046;45.988;18.664;2023-05-22T08:42:01;100543.38;;;25.34;57.37
69772;BME280;57046;45.988;18.664;2023-05-22T08:44:26;100541.78;;;25.37;54.52
69772;BME280;57046;45.988;18.664;2023-05-22T08:46:53;100542.75;;;25.54;54.28
69772;BME280;57046;45.988;18.664;2023-05-22T08:49:20;100541.91;;;25.57;50.14
69772;BME280;57046;45.988;18.664;2023-05-22T08:51:47;100542.56;;;25.64;52.31
69772;BME280;57046;45.988;18.664;2023-05-22T08:54:14;100551.56;;;25.72;51.37
69772;BME280;57046;45.988;18.664;2023-05-22T08:56:42;100546.59;;;25.83;51.52
69772;BME280;57046;45.988;18.664;2023-05-22T08:59:09;100536.59;;;25.89;50.86
69772;BME280;57046;45.988;18.664;2023-05-22T09:01:34;100541.25;;;25.96;48.24
69772;BME280;57046;45.988;18.664;2023-05-22T09:04:00;100537.19;;;26.00;51.37
69772;BME280;57046;45.988;18.664;2023-05-22T09:06:27;100542.63;;;26.07;49.51
69772;BME280;57046;45.988;18.664;2023-05-22T09:08:52;100544.47;;;26.14;50.78
69772;BME280;57046;45.988;18.664;2023-05-22T09:11:17;100545.56;;;26.20;49.04
69772;BME280;57046;45.988;18.664;2023-05-22T09:13:43;100542.41;;;26.21;48.10
69772;BME280;57046;45.988;18.664;2023-05-22T09:16:10;100540.75;;;26.24;48.34
69772;BME280;57046;45.988;18.664;2023-05-22T09:18:36;100535.22;;;26.44;52.35
69772;BME280;57046;45.988;18.664;2023-05-22T09:21:02;100539.09;;;26.50;49.60
69772;BME280;57046;45.988;18.664;2023-05-22T09:23:28;100535.25;;;26.63;47.25
69772;BME280;57046;45.988;18.664;2023-05-22T09:25:58;100539.28;;;26.78;45.99
69772;BME280;57046;45.988;18.664;2023-05-22T09:28:24;100530.84;;;26.86;45.92
69772;BME280;57046;45.988;18.664;2023-05-22T09:30:50;100531.47;;;26.93;45.17
69772;BME280;57046;45.988;18.664;2023-05-22T09:33:17;100530.94;;;26.98;46.12
69772;BME280;57046;45.988;18.664;2023-05-22T09:35:42;100530.31;;;27.10;46.08
69772;BME280;57046;45.988;18.664;2023-05-22T09:38:08;100522.44;;;27.25;47.64
69772;BME280;57046;45.988;18.664;2023-05-22T09:40:33;100526.69;;;27.29;46.86
69772;BME280;57046;45.988;18.664;2023-05-22T09:43:05;100493.19;;;27.20;47.70
69772;BME280;57046;45.988;18.664;2023-05-22T09:45:33;100523.25;;;27.42;49.10
69772;BME280;57046;45.988;18.664;2023-05-22T09:47:59;100513.41;;;27.37;46.70
69772;BME280;57046;45.988;18.664;2023-05-22T09:50:24;100516.13;;;27.41;45.70
69772;BME280;57046;45.988;18.664;2023-05-22T09:52:49;100521.78;;;27.53;46.93
69772;BME280;57046;45.988;18.664;2023-05-22T09:55:16;100517.00;;;27.54;44.38
69772;BME280;57046;45.988;18.664;2023-05-22T09:57:43;100514.31;;;27.66;45.10
69772;BME280;57046;45.988;18.664;2023-05-22T10:00:13;100510.47;;;27.76;44.97
69772;BME280;57046;45.988;18.664;2023-05-22T10:02:42;100506.91;;;27.92;46.49
69772;BME280;57046;45.988;18.664;2023-05-22T10:05:09;100500.47;;;27.95;44.85
69772;BME280;57046;45.988;18.664;2023-05-22T10:07:37;100503.84;;;28.03;44.55
69772;BME280;57046;45.988;18.664;2023-05-22T10:10:10;100479.03;;;27.96;44.90
69772;BME280;57046;45.988;18.664;2023-05-22T10:12:42;100502.38;;;28.14;44.48
69772;BME280;57046;45.988;18.664;2023-05-22T10:15:09;100496.28;;;28.19;40.65
69772;BME280;57046;45.988;18.664;2023-05-22T10:17:36;100492.72;;;28.19;42.48
69772;BME280;57046;45.988;18.664;2023-05-22T10:20:02;100505.41;;;28.20;43.13
69772;BME280;57046;45.988;18.664;2023-05-22T10:22:28;100506.31;;;28.29;42.93
69772;BME280;57046;45.988;18.664;2023-05-22T10:24:54;100499.13;;;28.45;43.08
69772;BME280;57046;45.988;18.664;2023-05-22T10:27:19;100495.81;;;28.50;42.68
69772;BME280;57046;45.988;18.664;2023-05-22T10:35:50;100486.00;;;28.74;43.52
69772;BME280;57046;45.988;18.664;2023-05-22T10:38:45;100485.22;;;28.73;41.35
69772;BME280;57046;45.988;18.664;2023-05-22T10:41:15;100473.41;;;28.82;41.92
69772;BME280;57046;45.988;18.664;2023-05-22T10:43:41;100485.47;;;28.92;39.99
69772;BME280;57046;45.988;18.664;2023-05-22T10:46:06;100481.78;;;29.07;38.23
69772;BME280;57046;45.988;18.664;2023-05-22T10:48:39;100478.78;;;29.27;40.22
69772;BME280;57046;45.988;18.664;2023-05-22T10:51:06;100484.81;;;29.38;40.54
69772;BME280;57046;45.988;18.664;2023-05-22T10:53:32;100476.41;;;29.13;39.12
69772;BME280;57046;45.988;18.664;2023-05-22T10:55:59;100466.09;;;29.39;40.38
69772;BME280;57046;45.988;18.664;2023-05-22T10:58:33;100470.53;;;29.49;40.84
69772;BME280;57046;45.988;18.664;2023-05-22T11:01:15;100475.41;;;29.57;40.47
69772;BME280;57046;45.988;18.664;2023-05-22T11:04:03;100446.03;;;29.31;38.12
69772;BME280;57046;45.988;18.664;2023-05-22T11:06:42;100463.63;;;29.41;40.95
69772;BME280;57046;45.988;18.664;2023-05-22T11:09:27;100464.94;;;29.49;39.35
69772;BME280;57046;45.988;18.664;2023-05-22T11:14:36;100456.00;;;29.54;37.66
69772;BME280;57046;45.988;18.664;2023-05-22T11:17:04;100466.31;;;29.78;38.86
69772;BME280;57046;45.988;18.664;2023-05-22T11:19:29;100463.31;;;29.86;38.79
69772;BME280;57046;45.988;18.664;2023-05-22T11:21:59;100456.25;;;29.81;38.38
69772;BME280;57046;45.988;18.664;2023-05-22T11:24:24;100456.56;;;29.96;38.98
69772;BME280;57046;45.988;18.664;2023-05-22T11:27:01;100425.84;;;30.08;40.79
69772;BME280;57046;45.988;18.664;2023-05-22T11:29:27;100445.69;;;30.10;35.76
69772;BME280;57046;45.988;18.664;2023-05-22T11:31:53;100445.03;;;30.28;36.74
69772;BME280;57046;45.988;18.664;2023-05-22T11:34:19;100443.88;;;30.38;37.63
69772;BME280;57046;45.988;18.664;2023-05-22T11:36:46;100439.78;;;30.52;39.13
69772;BME280;57046;45.988;18.664;2023-05-22T11:39:13;100434.25;;;30.39;36.27
69772;BME280;57046;45.988;18.664;2023-05-22T11:41:39;100426.81;;;30.36;36.81
69772;BME280;57046;45.988;18.664;2023-05-22T11:44:06;100390.09;;;30.16;36.55
69772;BME280;57046;45.988;18.664;2023-05-22T11:46:32;100435.31;;;30.54;35.76
69772;BME280;57046;45.988;18.664;2023-05-22T11:48:58;100430.44;;;30.46;36.77
69772;BME280;57046;45.988;18.664;2023-05-22T11:51:23;100429.19;;;30.68;35.44
69772;BME280;57046;45.988;18.664;2023-05-22T11:53:49;100424.59;;;30.84;36.67
69772;BME280;57046;45.988;18.664;2023-05-22T11:56:19;100406.84;;;30.68;35.53
69772;BME280;57046;45.988;18.664;2023-05-22T11:58:47;100421.66;;;30.56;37.58
69772;BME280;57046;45.988;18.664;2023-05-22T12:01:12;100427.66;;;30.76;37.15
69772;BME280;57046;45.988;18.664;2023-05-22T12:03:38;100423.00;;;30.73;35.16
69772;BME280;57046;45.988;18.664;2023-05-22T12:06:03;100419.75;;;30.75;37.17
69772;BME280;57046;45.988;18.664;2023-05-22T12:08:29;100424.34;;;31.00;36.80
69772;BME280;57046;45.988;18.664;2023-05-22T12:10:54;100419.28;;;31.16;36.99
69772;BME280;57046;45.988;18.664;2023-05-22T12:13:26;100420.34;;;31.10;34.56
69772;BME280;57046;45.988;18.664;2023-05-22T12:15:53;100413.88;;;31.13;34.90
69772;BME280;57046;45.988;18.664;2023-05-22T12:18:19;100410.44;;;31.09;34.25
69772;BME280;57046;45.988;18.664;2023-05-22T12:20:45;100402.84;;;31.18;33.98
69772;BME280;57046;45.988;18.664;2023-05-22T12:23:24;100405.97;;;31.29;35.72
69772;BME280;57046;45.988;18.664;2023-05-22T12:26:07;100401.50;;;31.50;35.84
69772;BME280;57046;45.988;18.664;2023-05-22T12:28:32;100391.53;;;31.31;33.27
69772;BME280;57046;45.988;18.664;2023-05-22T12:30:58;100395.41;;;31.34;33.81
69772;BME280;57046;45.988;18.664;2023-05-22T12:33:25;100369.66;;;31.29;35.37
69772;BME280;57046;45.988;18.664;2023-05-22T12:35:51;100394.19;;;31.44;34.96
69772;BME280;57046;45.988;18.664;2023-05-22T12:38:19;100375.41;;;31.44;32.03
69772;BME280;57046;45.988;18.664;2023-05-22T12:40:45;100389.09;;;31.88;32.65
69772;BME280;57046;45.988;18.664;2023-05-22T12:43:11;100383.97;;;31.77;31.96
69772;BME280;57046;45.988;18.664;2023-05-22T12:45:37;100383.81;;;31.81;31.59
69772;BME280;57046;45.988;18.664;2023-05-22T12:48:02;100384.91;;;31.74;33.69
69772;BME280;57046;45.988;18.664;2023-05-22T12:50:27;100383.16;;;31.95;33.26
69772;BME280;57046;45.988;18.664;2023-05-22T12:52:53;100375.84;;;32.15;33.92
69772;BME280;57046;45.988;18.664;2023-05-22T12:55:18;100379.09;;;32.32;31.08